sensor_id;sensor_type;location;lat;lon;timestamp;P1;durP1;ratioP1;P2;durP2;ratioP2
21741;SDS011;11033;47.490;11.116;2023-08-31T00:01:54;4.10;;;3.80;;
21741;SDS011;11033;47.490;11.116;2023-08-31T00:04:19;3.57;;;3.27;;
21741;SDS011;11033;47.490;11.116;2023-08-31T00:06:44;4.50;;;3.50;;
21741;SDS011;11033;47.490;11.116;2023-08-31T00:09:11;7.47;;;3.83;;
21741;SDS011;11033;47.490;11.116;2023-08-31T00:11:37;5.68;;;3.80;;
21741;SDS011;11033;47.490;11.116;2023-08-31T00:14:02;4.23;;;3.93;;
21741;SDS011;11033;47.490;11.116;2023-08-31T00:16:27;4.40;;;4.00;;
21741;SDS011;11033;47.490;11.116;2023-08-31T00:18:53;4.67;;;4.00;;
21741;SDS011;11033;47.490;11.116;2023-08-31T00:21:19;4.18;;;3.88;;
21741;SDS011;11033;47.490;11.116;2023-08-31T00:23:44;4.60;;;3.63;;
21741;SDS011;11033;47.490;11.116;2023-08-31T00:26:09;4.70;;;3.73;;
21741;SDS011;11033;47.490;11.116;2023-08-31T00:28:35;4.70;;;4.18;;
21741;SDS011;11033;47.490;11.116;2023-08-31T00:31:03;3.37;;;3.17;;
21741;SDS011;11033;47.490;11.116;2023-08-31T00:33:28;3.75;;;3.45;;
21741;SDS011;11033;47.490;11.116;2023-08-31T00:35:53;4.43;;;4.13;;
21741;SDS011;11033;47.490;11.116;2023-08-31T00:38:22;4.82;;;3.67;;
21741;SDS011;11033;47.490;11.116;2023-08-31T00:40:47;5.00;;;3.80;;
21741;SDS011;11033;47.490;11.116;2023-08-31T00:43:13;5.50;;;3.50;;
21741;SDS011;11033;47.490;11.116;2023-08-31T00:45:40;3.72;;;3.40;;
21741;SDS011;11033;47.490;11.116;2023-08-31T00:48:05;4.47;;;3.53;;
21741;SDS011;11033;47.490;11.116;2023-08-31T00:50:31;4.50;;;4.10;;
21741;SDS011;11033;47.490;11.116;2023-08-31T00:52:56;5.00;;;3.90;;
21741;SDS011;11033;47.490;11.116;2023-08-31T00:55:21;3.70;;;3.50;;
21741;SDS011;11033;47.490;11.116;2023-08-31T00:57:46;3.90;;;3.60;;
21741;SDS011;11033;47.490;11.116;2023-08-31T01:00:12;3.63;;;3.40;;
21741;SDS011;11033;47.490;11.116;2023-08-31T01:02:51;5.18;;;3.72;;
21741;SDS011;11033;47.490;11.116;2023-08-31T01:05:25;4.78;;;3.60;;
21741;SDS011;11033;47.490;11.116;2023-08-31T01:07:53;3.50;;;3.15;;
21741;SDS011;11033;47.490;11.116;2023-08-31T01:10:24;4.18;;;3.88;;
21741;SDS011;11033;47.490;11.116;2023-08-31T01:12:50;4.38;;;4.07;;
21741;SDS011;11033;47.490;11.116;2023-08-31T01:15:17;4.68;;;3.65;;
21741;SDS011;11033;47.490;11.116;2023-08-31T01:17:46;5.90;;;3.97;;
21741;SDS011;11033;47.490;11.116;2023-08-31T01:20:14;10.73;;;4.18;;
21741;SDS011;11033;47.490;11.116;2023-08-31T01:22:47;4.93;;;4.55;;
21741;SDS011;11033;47.490;11.116;2023-08-31T01:25:13;4.75;;;4.03;;
21741;SDS011;11033;47.490;11.116;2023-08-31T01:27:38;4.20;;;3.90;;
21741;SDS011;11033;47.490;11.116;2023-08-31T01:30:04;4.50;;;4.10;;
21741;SDS011;11033;47.490;11.116;2023-08-31T01:32:30;4.82;;;3.95;;
21741;SDS011;11033;47.490;11.116;2023-08-31T01:34:55;4.35;;;4.05;;
21741;SDS011;11033;47.490;11.116;2023-08-31T01:37:31;4.35;;;4.05;;
21741;SDS011;11033;47.490;11.116;2023-08-31T01:40:01;8.10;;;4.40;;
21741;SDS011;11033;47.490;11.116;2023-08-31T01:42:29;4.28;;;3.85;;
21741;SDS011;11033;47.490;11.116;2023-08-31T01:44:55;5.28;;;3.65;;
21741;SDS011;11033;47.490;11.116;2023-08-31T01:47:20;5.93;;;4.60;;
21741;SDS011;11033;47.490;11.116;2023-08-31T01:49:46;4.53;;;3.90;;
21741;SDS011;11033;47.490;11.116;2023-08-31T01:52:11;4.03;;;3.60;;
21741;SDS011;11033;47.490;11.116;2023-08-31T01:54:36;4.37;;;3.97;;
21741;SDS011;11033;47.490;11.116;2023-08-31T01:57:04;4.25;;;3.83;;
21741;SDS011;11033;47.490;11.116;2023-08-31T01:59:30;4.40;;;4.00;;
21741;SDS011;11033;47.490;11.116;2023-08-31T02:01:56;4.20;;;3.90;;
21741;SDS011;11033;47.490;11.116;2023-08-31T02:04:21;5.43;;;4.47;;
21741;SDS011;11033;47.490;11.116;2023-08-31T02:06:46;5.30;;;3.70;;
21741;SDS011;11033;47.490;11.116;2023-08-31T02:09:12;4.50;;;4.07;;
21741;SDS011;11033;47.490;11.116;2023-08-31T02:11:37;6.03;;;4.28;;
21741;SDS011;11033;47.490;11.116;2023-08-31T02:14:03;4.07;;;3.78;;
21741;SDS011;11033;47.490;11.116;2023-08-31T02:16:29;5.40;;;3.90;;
21741;SDS011;11033;47.490;11.116;2023-08-31T02:18:54;5.47;;;4.07;;
21741;SDS011;11033;47.490;11.116;2023-08-31T02:21:19;4.53;;;4.13;;
21741;SDS011;11033;47.490;11.116;2023-08-31T02:23:45;6.57;;;4.23;;
21741;SDS011;11033;47.490;11.116;2023-08-31T02:26:10;5.40;;;3.73;;
21741;SDS011;11033;47.490;11.116;2023-08-31T02:28:36;6.45;;;4.38;;
21741;SDS011;11033;47.490;11.116;2023-08-31T02:31:02;4.27;;;3.87;;
21741;SDS011;11033;47.490;11.116;2023-08-31T02:33:27;4.55;;;4.15;;
21741;SDS011;11033;47.490;11.116;2023-08-31T02:35:53;4.87;;;3.73;;
21741;SDS011;11033;47.490;11.116;2023-08-31T02:38:18;4.68;;;3.60;;
21741;SDS011;11033;47.490;11.116;2023-08-31T02:40:45;6.60;;;3.70;;
21741;SDS011;11033;47.490;11.116;2023-08-31T02:43:11;4.40;;;3.97;;
21741;SDS011;11033;47.490;11.116;2023-08-31T02:45:36;5.80;;;3.65;;
21741;SDS011;11033;47.490;11.116;2023-08-31T02:48:01;5.33;;;3.83;;
21741;SDS011;11033;47.490;11.116;2023-08-31T02:50:28;5.03;;;4.28;;
21741;SDS011;11033;47.490;11.116;2023-08-31T02:52:53;3.93;;;3.60;;
21741;SDS011;11033;47.490;11.116;2023-08-31T02:55:18;4.27;;;3.93;;
21741;SDS011;11033;47.490;11.116;2023-08-31T02:57:44;9.77;;;3.90;;
21741;SDS011;11033;47.490;11.116;2023-08-31T03:00:09;4.00;;;3.63;;
21741;SDS011;11033;47.490;11.116;2023-08-31T03:02:37;6.25;;;3.72;;
21741;SDS011;11033;47.490;11.116;2023-08-31T03:05:03;4.63;;;3.93;;
21741;SDS011;11033;47.490;11.116;2023-08-31T03:07:28;5.13;;;4.13;;
21741;SDS011;11033;47.490;11.116;2023-08-31T03:09:53;4.25;;;3.92;;
21741;SDS011;11033;47.490;11.116;2023-08-31T03:12:18;4.57;;;4.27;;
21741;SDS011;11033;47.490;11.116;2023-08-31T03:14:43;4.20;;;3.80;;
21741;SDS011;11033;47.490;11.116;2023-08-31T03:17:09;5.47;;;4.10;;
21741;SDS011;11033;47.490;11.116;2023-08-31T03:19:34;4.83;;;4.43;;
21741;SDS011;11033;47.490;11.116;2023-08-31T03:21:59;4.77;;;3.53;;
21741;SDS011;11033;47.490;11.116;2023-08-31T03:24:24;4.37;;;3.87;;
21741;SDS011;11033;47.490;11.116;2023-08-31T03:26:49;4.10;;;3.77;;
21741;SDS011;11033;47.490;11.116;2023-08-31T03:29:14;4.30;;;3.90;;
21741;SDS011;11033;47.490;11.116;2023-08-31T03:31:40;3.57;;;3.17;;
21741;SDS011;11033;47.490;11.116;2023-08-31T03:34:05;4.87;;;3.57;;
21741;SDS011;11033;47.490;11.116;2023-08-31T03:36:30;7.85;;;3.80;;
21741;SDS011;11033;47.490;11.116;2023-08-31T03:38:55;3.90;;;3.60;;
21741;SDS011;11033;47.490;11.116;2023-08-31T03:41:21;3.83;;;3.53;;
21741;SDS011;11033;47.490;11.116;2023-08-31T03:43:46;5.10;;;4.67;;
21741;SDS011;11033;47.490;11.116;2023-08-31T03:46:11;4.10;;;3.80;;
21741;SDS011;11033;47.490;11.116;2023-08-31T03:48:36;4.93;;;4.43;;
21741;SDS011;11033;47.490;11.116;2023-08-31T03:51:02;5.50;;;4.00;;
21741;SDS011;11033;47.490;11.116;2023-08-31T03:53:27;4.15;;;3.85;;
21741;SDS011;11033;47.490;11.116;2023-08-31T03:55:53;6.13;;;3.77;;
21741;SDS011;11033;47.490;11.116;2023-08-31T03:58:18;4.17;;;3.83;;
21741;SDS011;11033;47.490;11.116;2023-08-31T04:00:43;4.53;;;4.00;;
21741;SDS011;11033;47.490;11.116;2023-08-31T04:03:09;4.63;;;3.25;;
21741;SDS011;11033;47.490;11.116;2023-08-31T04:05:34;5.10;;;4.60;;
21741;SDS011;11033;47.490;11.116;2023-08-31T04:08:00;4.05;;;3.75;;
21741;SDS011;11033;47.490;11.116;2023-08-31T04:10:25;5.20;;;4.00;;
21741;SDS011;11033;47.490;11.116;2023-08-31T04:12:51;4.10;;;3.80;;
21741;SDS011;11033;47.490;11.116;2023-08-31T04:15:16;4.20;;;3.90;;
21741;SDS011;11033;47.490;11.116;2023-08-31T04:17:42;4.57;;;4.18;;
21741;SDS011;11033;47.490;11.116;2023-08-31T04:20:07;4.80;;;4.40;;
21741;SDS011;11033;47.490;11.116;2023-08-31T04:22:33;4.85;;;4.18;;
21741;SDS011;11033;47.490;11.116;2023-08-31T04:24:58;4.53;;;4.13;;
21741;SDS011;11033;47.490;11.116;2023-08-31T04:27:23;7.30;;;3.97;;
21741;SDS011;11033;47.490;11.116;2023-08-31T04:29:49;6.47;;;3.90;;
21741;SDS011;11033;47.490;11.116;2023-08-31T04:32:14;4.70;;;4.27;;
21741;SDS011;11033;47.490;11.116;2023-08-31T04:34:39;8.35;;;4.00;;
21741;SDS011;11033;47.490;11.116;2023-08-31T04:37:05;3.73;;;3.43;;
21741;SDS011;11033;47.490;11.116;2023-08-31T04:39:30;5.80;;;4.57;;
21741;SDS011;11033;47.490;11.116;2023-08-31T04:41:55;4.57;;;4.23;;
21741;SDS011;11033;47.490;11.116;2023-08-31T04:44:20;4.23;;;3.93;;
21741;SDS011;11033;47.490;11.116;2023-08-31T04:46:45;5.00;;;4.53;;
21741;SDS011;11033;47.490;11.116;2023-08-31T04:49:11;4.93;;;4.50;;
21741;SDS011;11033;47.490;11.116;2023-08-31T04:51:36;5.03;;;4.53;;
21741;SDS011;11033;47.490;11.116;2023-08-31T04:54:04;6.85;;;4.60;;
21741;SDS011;11033;47.490;11.116;2023-08-31T04:56:30;6.28;;;4.40;;
21741;SDS011;11033;47.490;11.116;2023-08-31T04:58:56;6.90;;;4.25;;
21741;SDS011;11033;47.490;11.116;2023-08-31T05:01:21;4.43;;;4.13;;
21741;SDS011;11033;47.490;11.116;2023-08-31T05:03:47;5.07;;;4.63;;
21741;SDS011;11033;47.490;11.116;2023-08-31T05:06:12;5.27;;;4.80;;
21741;SDS011;11033;47.490;11.116;2023-08-31T05:08:37;5.47;;;4.97;;
21741;SDS011;11033;47.490;11.116;2023-08-31T05:11:03;6.38;;;4.68;;
21741;SDS011;11033;47.490;11.116;2023-08-31T05:13:28;4.90;;;4.50;;
21741;SDS011;11033;47.490;11.116;2023-08-31T05:15:53;5.97;;;4.97;;
21741;SDS011;11033;47.490;11.116;2023-08-31T05:18:19;6.83;;;5.47;;
21741;SDS011;11033;47.490;11.116;2023-08-31T05:20:44;6.30;;;5.80;;
21741;SDS011;11033;47.490;11.116;2023-08-31T05:23:09;6.45;;;5.30;;
21741;SDS011;11033;47.490;11.116;2023-08-31T05:25:34;5.43;;;4.60;;
21741;SDS011;11033;47.490;11.116;2023-08-31T05:28:00;4.57;;;4.17;;
21741;SDS011;11033;47.490;11.116;2023-08-31T05:30:25;5.23;;;4.73;;
21741;SDS011;11033;47.490;11.116;2023-08-31T05:32:50;4.83;;;4.23;;
21741;SDS011;11033;47.490;11.116;2023-08-31T05:35:15;4.80;;;4.40;;
21741;SDS011;11033;47.490;11.116;2023-08-31T05:37:40;4.47;;;4.07;;
21741;SDS011;11033;47.490;11.116;2023-08-31T05:40:06;4.97;;;4.57;;
21741;SDS011;11033;47.490;11.116;2023-08-31T05:42:35;5.45;;;5.05;;
21741;SDS011;11033;47.490;11.116;2023-08-31T05:45:00;4.93;;;4.53;;
21741;SDS011;11033;47.490;11.116;2023-08-31T05:47:25;5.20;;;4.70;;
21741;SDS011;11033;47.490;11.116;2023-08-31T05:49:50;5.15;;;4.75;;
21741;SDS011;11033;47.490;11.116;2023-08-31T05:52:16;6.68;;;4.18;;
21741;SDS011;11033;47.490;11.116;2023-08-31T05:54:41;7.70;;;5.00;;
21741;SDS011;11033;47.490;11.116;2023-08-31T05:57:06;5.30;;;4.80;;
21741;SDS011;11033;47.490;11.116;2023-08-31T05:59:31;5.03;;;4.10;;
21741;SDS011;11033;47.490;11.116;2023-08-31T06:01:57;4.97;;;4.10;;
21741;SDS011;11033;47.490;11.116;2023-08-31T06:04:22;6.37;;;4.60;;
21741;SDS011;11033;47.490;11.116;2023-08-31T06:06:47;7.03;;;4.70;;
21741;SDS011;11033;47.490;11.116;2023-08-31T06:09:12;4.45;;;4.15;;
21741;SDS011;11033;47.490;11.116;2023-08-31T06:11:37;6.50;;;4.57;;
21741;SDS011;11033;47.490;11.116;2023-08-31T06:14:04;9.20;;;5.10;;
21741;SDS011;11033;47.490;11.116;2023-08-31T06:16:29;5.17;;;4.40;;
21741;SDS011;11033;47.490;11.116;2023-08-31T06:18:54;4.37;;;4.07;;
21741;SDS011;11033;47.490;11.116;2023-08-31T06:21:19;6.40;;;4.60;;
21741;SDS011;11033;47.490;11.116;2023-08-31T06:23:44;4.60;;;4.17;;
21741;SDS011;11033;47.490;11.116;2023-08-31T06:26:10;4.63;;;4.00;;
21741;SDS011;11033;47.490;11.116;2023-08-31T06:28:35;4.70;;;4.30;;
21741;SDS011;11033;47.490;11.116;2023-08-31T06:31:00;4.78;;;4.38;;
21741;SDS011;11033;47.490;11.116;2023-08-31T06:33:25;4.37;;;3.97;;
21741;SDS011;11033;47.490;11.116;2023-08-31T06:35:50;4.10;;;3.80;;
21741;SDS011;11033;47.490;11.116;2023-08-31T06:38:19;5.90;;;4.30;;
21741;SDS011;11033;47.490;11.116;2023-08-31T06:40:44;4.10;;;3.70;;
21741;SDS011;11033;47.490;11.116;2023-08-31T06:43:09;4.67;;;4.27;;
21741;SDS011;11033;47.490;11.116;2023-08-31T06:45:35;4.60;;;4.13;;
21741;SDS011;11033;47.490;11.116;2023-08-31T06:48:00;4.40;;;4.00;;
21741;SDS011;11033;47.490;11.116;2023-08-31T06:50:26;5.30;;;4.00;;
21741;SDS011;11033;47.490;11.116;2023-08-31T06:52:51;4.60;;;4.20;;
21741;SDS011;11033;47.490;11.116;2023-08-31T06:55:16;5.37;;;4.20;;
21741;SDS011;11033;47.490;11.116;2023-08-31T06:57:41;4.37;;;4.07;;
21741;SDS011;11033;47.490;11.116;2023-08-31T07:00:07;3.90;;;3.70;;
21741;SDS011;11033;47.490;11.116;2023-08-31T07:02:33;4.60;;;4.18;;
21741;SDS011;11033;47.490;11.116;2023-08-31T07:04:59;4.45;;;4.05;;
21741;SDS011;11033;47.490;11.116;2023-08-31T07:07:24;4.33;;;4.03;;
21741;SDS011;11033;47.490;11.116;2023-08-31T07:09:50;5.03;;;4.63;;
21741;SDS011;11033;47.490;11.116;2023-08-31T07:12:16;6.45;;;5.50;;
21741;SDS011;11033;47.490;11.116;2023-08-31T07:14:41;9.17;;;4.87;;
21741;SDS011;11033;47.490;11.116;2023-08-31T07:17:06;6.40;;;5.77;;
21741;SDS011;11033;47.490;11.116;2023-08-31T07:19:31;6.23;;;5.73;;
21741;SDS011;11033;47.490;11.116;2023-08-31T07:22:00;8.63;;;6.35;;
21741;SDS011;11033;47.490;11.116;2023-08-31T07:24:25;6.00;;;5.50;;
21741;SDS011;11033;47.490;11.116;2023-08-31T07:26:50;7.13;;;5.43;;
21741;SDS011;11033;47.490;11.116;2023-08-31T07:29:15;5.90;;;5.40;;
21741;SDS011;11033;47.490;11.116;2023-08-31T07:31:40;6.77;;;6.17;;
21741;SDS011;11033;47.490;11.116;2023-08-31T07:34:05;6.20;;;5.60;;
21741;SDS011;11033;47.490;11.116;2023-08-31T07:36:31;5.97;;;5.47;;
21741;SDS011;11033;47.490;11.116;2023-08-31T07:38:56;5.70;;;5.30;;
21741;SDS011;11033;47.490;11.116;2023-08-31T07:41:21;7.47;;;5.47;;
21741;SDS011;11033;47.490;11.116;2023-08-31T07:43:47;8.38;;;5.53;;
21741;SDS011;11033;47.490;11.116;2023-08-31T07:46:13;6.05;;;5.40;;
21741;SDS011;11033;47.490;11.116;2023-08-31T07:48:39;6.50;;;6.00;;
21741;SDS011;11033;47.490;11.116;2023-08-31T07:51:04;8.20;;;6.43;;
21741;SDS011;11033;47.490;11.116;2023-08-31T07:53:29;8.70;;;5.67;;
21741;SDS011;11033;47.490;11.116;2023-08-31T07:55:54;6.03;;;5.63;;
21741;SDS011;11033;47.490;11.116;2023-08-31T07:58:23;6.22;;;5.72;;
21741;SDS011;11033;47.490;11.116;2023-08-31T08:00:48;7.03;;;6.20;;
21741;SDS011;11033;47.490;11.116;2023-08-31T08:03:14;7.40;;;6.70;;
21741;SDS011;11033;47.490;11.116;2023-08-31T08:05:39;7.47;;;6.90;;
21741;SDS011;11033;47.490;11.116;2023-08-31T08:08:05;7.55;;;7.00;;
21741;SDS011;11033;47.490;11.116;2023-08-31T08:10:30;7.50;;;6.87;;
21741;SDS011;11033;47.490;11.116;2023-08-31T08:12:56;10.63;;;6.97;;
21741;SDS011;11033;47.490;11.116;2023-08-31T08:15:21;8.23;;;7.53;;
21741;SDS011;11033;47.490;11.116;2023-08-31T08:17:46;8.23;;;7.63;;
21741;SDS011;11033;47.490;11.116;2023-08-31T08:20:12;8.57;;;7.88;;
21741;SDS011;11033;47.490;11.116;2023-08-31T08:22:37;8.25;;;7.50;;
21741;SDS011;11033;47.490;11.116;2023-08-31T08:25:03;7.87;;;7.47;;
21741;SDS011;11033;47.490;11.116;2023-08-31T08:27:28;7.88;;;7.07;;
21741;SDS011;11033;47.490;11.116;2023-08-31T08:29:53;7.27;;;6.77;;
21741;SDS011;11033;47.490;11.116;2023-08-31T08:32:18;8.40;;;7.83;;
21741;SDS011;11033;47.490;11.116;2023-08-31T08:34:43;7.83;;;7.43;;
21741;SDS011;11033;47.490;11.116;2023-08-31T08:37:08;8.50;;;7.37;;
21741;SDS011;11033;47.490;11.116;2023-08-31T08:39:34;7.73;;;7.10;;
21741;SDS011;11033;47.490;11.116;2023-08-31T08:41:59;8.57;;;7.30;;
21741;SDS011;11033;47.490;11.116;2023-08-31T08:44:24;8.17;;;7.47;;
21741;SDS011;11033;47.490;11.116;2023-08-31T08:46:50;8.65;;;8.02;;
21741;SDS011;11033;47.490;11.116;2023-08-31T08:49:16;8.07;;;7.50;;
21741;SDS011;11033;47.490;11.116;2023-08-31T08:51:41;8.00;;;7.50;;
21741;SDS011;11033;47.490;11.116;2023-08-31T08:54:07;8.25;;;7.65;;
21741;SDS011;11033;47.490;11.116;2023-08-31T08:56:32;8.10;;;7.43;;
21741;SDS011;11033;47.490;11.116;2023-08-31T08:58:58;8.75;;;8.00;;
21741;SDS011;11033;47.490;11.116;2023-08-31T09:01:24;7.90;;;7.50;;
21741;SDS011;11033;47.490;11.116;2023-08-31T09:03:49;8.55;;;7.95;;
21741;SDS011;11033;47.490;11.116;2023-08-31T09:06:15;8.27;;;7.73;;
21741;SDS011;11033;47.490;11.116;2023-08-31T09:08:40;8.87;;;8.17;;
21741;SDS011;11033;47.490;11.116;2023-08-31T09:11:06;8.90;;;8.23;;
21741;SDS011;11033;47.490;11.116;2023-08-31T09:13:31;9.33;;;8.53;;
21741;SDS011;11033;47.490;11.116;2023-08-31T09:15:58;8.63;;;8.10;;
21741;SDS011;11033;47.490;11.116;2023-08-31T09:18:27;8.67;;;7.90;;
21741;SDS011;11033;47.490;11.116;2023-08-31T09:20:52;11.77;;;8.93;;
21741;SDS011;11033;47.490;11.116;2023-08-31T09:23:18;8.70;;;8.00;;
21741;SDS011;11033;47.490;11.116;2023-08-31T09:25:44;8.60;;;8.10;;
21741;SDS011;11033;47.490;11.116;2023-08-31T09:28:10;9.55;;;8.82;;
21741;SDS011;11033;47.490;11.116;2023-08-31T09:30:37;8.68;;;8.18;;
21741;SDS011;11033;47.490;11.116;2023-08-31T09:33:03;9.02;;;8.35;;
21741;SDS011;11033;47.490;11.116;2023-08-31T09:35:28;9.02;;;8.43;;
21741;SDS011;11033;47.490;11.116;2023-08-31T09:37:57;9.57;;;9.00;;
21741;SDS011;11033;47.490;11.116;2023-08-31T09:40:22;10.15;;;9.50;;
21741;SDS011;11033;47.490;11.116;2023-08-31T09:42:49;9.57;;;8.87;;
21741;SDS011;11033;47.490;11.116;2023-08-31T09:45:16;10.48;;;9.68;;
21741;SDS011;11033;47.490;11.116;2023-08-31T09:47:41;9.40;;;8.70;;
21741;SDS011;11033;47.490;11.116;2023-08-31T09:50:07;9.63;;;8.93;;
21741;SDS011;11033;47.490;11.116;2023-08-31T09:52:33;9.10;;;8.32;;
21741;SDS011;11033;47.490;11.116;2023-08-31T09:54:58;9.45;;;8.85;;
21741;SDS011;11033;47.490;11.116;2023-08-31T09:57:25;9.90;;;9.10;;
21741;SDS011;11033;47.490;11.116;2023-08-31T09:59:50;9.43;;;8.73;;
21741;SDS011;11033;47.490;11.116;2023-08-31T10:02:16;9.27;;;8.67;;
21741;SDS011;11033;47.490;11.116;2023-08-31T10:04:42;9.27;;;8.57;;
21741;SDS011;11033;47.490;11.116;2023-08-31T10:07:07;8.95;;;8.35;;
21741;SDS011;11033;47.490;11.116;2023-08-31T10:09:34;9.82;;;9.23;;
21741;SDS011;11033;47.490;11.116;2023-08-31T10:12:01;8.80;;;8.07;;
21741;SDS011;11033;47.490;11.116;2023-08-31T10:14:28;8.90;;;8.27;;
21741;SDS011;11033;47.490;11.116;2023-08-31T10:16:53;10.05;;;9.45;;
21741;SDS011;11033;47.490;11.116;2023-08-31T10:19:20;9.07;;;8.38;;
21741;SDS011;11033;47.490;11.116;2023-08-31T10:21:46;9.50;;;8.83;;
21741;SDS011;11033;47.490;11.116;2023-08-31T10:24:11;8.83;;;8.30;;
21741;SDS011;11033;47.490;11.116;2023-08-31T10:26:36;9.30;;;8.67;;
21741;SDS011;11033;47.490;11.116;2023-08-31T10:29:01;8.73;;;8.23;;
21741;SDS011;11033;47.490;11.116;2023-08-31T10:31:28;9.23;;;8.63;;
21741;SDS011;11033;47.490;11.116;2023-08-31T10:33:58;9.35;;;8.75;;
21741;SDS011;11033;47.490;11.116;2023-08-31T10:36:34;9.20;;;8.48;;
21741;SDS011;11033;47.490;11.116;2023-08-31T10:39:00;9.00;;;8.40;;
21741;SDS011;11033;47.490;11.116;2023-08-31T10:41:29;8.18;;;7.68;;
21741;SDS011;11033;47.490;11.116;2023-08-31T10:43:57;8.82;;;8.20;;
21741;SDS011;11033;47.490;11.116;2023-08-31T10:51:34;9.73;;;9.02;;
21741;SDS011;11033;47.490;11.116;2023-08-31T10:54:20;9.97;;;9.37;;
21741;SDS011;11033;47.490;11.116;2023-08-31T10:59:22;10.32;;;9.65;;
21741;SDS011;11033;47.490;11.116;2023-08-31T11:01:57;10.93;;;10.23;;
21741;SDS011;11033;47.490;11.116;2023-08-31T11:04:24;10.70;;;10.00;;
21741;SDS011;11033;47.490;11.116;2023-08-31T11:06:49;10.18;;;9.48;;
21741;SDS011;11033;47.490;11.116;2023-08-31T11:09:33;10.48;;;9.77;;
21741;SDS011;11033;47.490;11.116;2023-08-31T11:11:59;10.90;;;10.27;;
21741;SDS011;11033;47.490;11.116;2023-08-31T11:14:24;10.33;;;9.63;;
21741;SDS011;11033;47.490;11.116;2023-08-31T11:16:49;10.17;;;9.57;;
21741;SDS011;11033;47.490;11.116;2023-08-31T11:19:15;10.37;;;9.77;;
21741;SDS011;11033;47.490;11.116;2023-08-31T11:21:40;9.90;;;9.00;;
21741;SDS011;11033;47.490;11.116;2023-08-31T11:24:06;9.97;;;9.03;;
21741;SDS011;11033;47.490;11.116;2023-08-31T11:26:32;10.52;;;9.90;;
21741;SDS011;11033;47.490;11.116;2023-08-31T11:28:57;10.52;;;9.90;;
21741;SDS011;11033;47.490;11.116;2023-08-31T11:31:26;10.77;;;10.07;;
21741;SDS011;11033;47.490;11.116;2023-08-31T11:33:51;10.35;;;9.80;;
21741;SDS011;11033;47.490;11.116;2023-08-31T11:36:16;10.70;;;10.10;;
21741;SDS011;11033;47.490;11.116;2023-08-31T11:38:44;11.10;;;10.50;;
21741;SDS011;11033;47.490;11.116;2023-08-31T11:41:09;10.93;;;10.20;;
21741;SDS011;11033;47.490;11.116;2023-08-31T11:43:35;10.47;;;9.87;;
21741;SDS011;11033;47.490;11.116;2023-08-31T11:46:00;10.75;;;10.15;;
21741;SDS011;11033;47.490;11.116;2023-08-31T11:48:25;11.38;;;10.65;;
21741;SDS011;11033;47.490;11.116;2023-08-31T11:50:51;13.05;;;11.95;;
21741;SDS011;11033;47.490;11.116;2023-08-31T11:53:18;13.10;;;12.23;;
21741;SDS011;11033;47.490;11.116;2023-08-31T11:55:49;13.10;;;12.20;;
21741;SDS011;11033;47.490;11.116;2023-08-31T11:58:15;14.90;;;13.75;;
21741;SDS011;11033;47.490;11.116;2023-08-31T12:00:40;13.87;;;12.87;;
21741;SDS011;11033;47.490;11.116;2023-08-31T12:03:07;15.00;;;14.00;;
21741;SDS011;11033;47.490;11.116;2023-08-31T12:05:46;13.07;;;12.30;;
21741;SDS011;11033;47.490;11.116;2023-08-31T12:08:11;14.30;;;13.50;;
21741;SDS011;11033;47.490;11.116;2023-08-31T12:10:39;14.33;;;13.43;;
21741;SDS011;11033;47.490;11.116;2023-08-31T12:13:09;13.18;;;12.27;;
21741;SDS011;11033;47.490;11.116;2023-08-31T12:15:34;12.80;;;12.13;;
21741;SDS011;11033;47.490;11.116;2023-08-31T12:18:06;12.05;;;11.45;;
21741;SDS011;11033;47.490;11.116;2023-08-31T12:20:31;12.20;;;11.50;;
21741;SDS011;11033;47.490;11.116;2023-08-31T12:22:57;12.15;;;11.45;;
21741;SDS011;11033;47.490;11.116;2023-08-31T12:25:23;13.45;;;12.73;;
21741;SDS011;11033;47.490;11.116;2023-08-31T12:27:48;11.52;;;10.93;;
21741;SDS011;11033;47.490;11.116;2023-08-31T12:30:14;11.82;;;11.13;;
21741;SDS011;11033;47.490;11.116;2023-08-31T12:32:40;12.27;;;11.67;;
21741;SDS011;11033;47.490;11.116;2023-08-31T12:35:05;13.60;;;12.83;;
21741;SDS011;11033;47.490;11.116;2023-08-31T12:37:31;13.80;;;12.95;;
21741;SDS011;11033;47.490;11.116;2023-08-31T12:39:56;13.37;;;12.63;;
21741;SDS011;11033;47.490;11.116;2023-08-31T12:42:21;13.07;;;12.27;;
21741;SDS011;11033;47.490;11.116;2023-08-31T12:44:46;13.20;;;12.27;;
21741;SDS011;11033;47.490;11.116;2023-08-31T12:47:12;14.63;;;13.82;;
21741;SDS011;11033;47.490;11.116;2023-08-31T12:49:37;15.57;;;14.67;;
21741;SDS011;11033;47.490;11.116;2023-08-31T12:52:02;15.80;;;14.90;;
21741;SDS011;11033;47.490;11.116;2023-08-31T12:54:27;15.55;;;14.75;;
21741;SDS011;11033;47.490;11.116;2023-08-31T12:56:53;14.27;;;13.57;;
21741;SDS011;11033;47.490;11.116;2023-08-31T12:59:18;13.03;;;12.43;;
21741;SDS011;11033;47.490;11.116;2023-08-31T13:01:43;13.03;;;12.43;;
21741;SDS011;11033;47.490;11.116;2023-08-31T13:04:08;13.40;;;12.80;;
21741;SDS011;11033;47.490;11.116;2023-08-31T13:06:33;13.60;;;12.93;;
21741;SDS011;11033;47.490;11.116;2023-08-31T13:08:59;12.97;;;12.37;;
21741;SDS011;11033;47.490;11.116;2023-08-31T13:11:24;11.20;;;10.70;;
21741;SDS011;11033;47.490;11.116;2023-08-31T13:13:49;11.10;;;10.60;;
21741;SDS011;11033;47.490;11.116;2023-08-31T13:16:18;11.07;;;10.50;;
21741;SDS011;11033;47.490;11.116;2023-08-31T13:18:43;11.53;;;10.90;;
21741;SDS011;11033;47.490;11.116;2023-08-31T13:21:08;10.33;;;9.83;;
21741;SDS011;11033;47.490;11.116;2023-08-31T13:23:34;10.00;;;9.52;;
21741;SDS011;11033;47.490;11.116;2023-08-31T13:25:59;11.00;;;10.23;;
21741;SDS011;11033;47.490;11.116;2023-08-31T13:28:24;10.13;;;9.63;;
21741;SDS011;11033;47.490;11.116;2023-08-31T13:30:49;9.97;;;9.40;;
21741;SDS011;11033;47.490;11.116;2023-08-31T13:33:15;10.30;;;9.70;;
21741;SDS011;11033;47.490;11.116;2023-08-31T13:35:40;11.57;;;10.80;;
21741;SDS011;11033;47.490;11.116;2023-08-31T13:38:05;10.93;;;10.13;;
21741;SDS011;11033;47.490;11.116;2023-08-31T13:40:30;10.70;;;10.20;;
21741;SDS011;11033;47.490;11.116;2023-08-31T13:42:59;11.75;;;11.00;;
21741;SDS011;11033;47.490;11.116;2023-08-31T13:45:27;10.75;;;10.15;;
21741;SDS011;11033;47.490;11.116;2023-08-31T13:47:53;11.35;;;10.75;;
21741;SDS011;11033;47.490;11.116;2023-08-31T13:50:18;11.07;;;10.57;;
21741;SDS011;11033;47.490;11.116;2023-08-31T13:52:44;10.83;;;10.33;;
21741;SDS011;11033;47.490;11.116;2023-08-31T13:55:09;11.65;;;11.07;;
21741;SDS011;11033;47.490;11.116;2023-08-31T13:57:34;10.70;;;10.10;;
21741;SDS011;11033;47.490;11.116;2023-08-31T14:00:00;11.27;;;10.50;;
21741;SDS011;11033;47.490;11.116;2023-08-31T14:02:25;9.93;;;9.43;;
21741;SDS011;11033;47.490;11.116;2023-08-31T14:04:50;10.88;;;10.38;;
21741;SDS011;11033;47.490;11.116;2023-08-31T14:07:15;10.30;;;9.70;;
21741;SDS011;11033;47.490;11.116;2023-08-31T14:09:41;9.95;;;9.45;;
21741;SDS011;11033;47.490;11.116;2023-08-31T14:12:06;9.63;;;9.13;;
21741;SDS011;11033;47.490;11.116;2023-08-31T14:14:31;10.00;;;9.40;;
21741;SDS011;11033;47.490;11.116;2023-08-31T14:16:56;10.20;;;9.57;;
21741;SDS011;11033;47.490;11.116;2023-08-31T14:19:22;9.20;;;8.63;;
21741;SDS011;11033;47.490;11.116;2023-08-31T14:21:47;8.57;;;8.18;;
21741;SDS011;11033;47.490;11.116;2023-08-31T14:24:12;9.18;;;8.68;;
21741;SDS011;11033;47.490;11.116;2023-08-31T14:26:38;9.80;;;9.20;;
21741;SDS011;11033;47.490;11.116;2023-08-31T14:29:03;9.57;;;9.05;;